Time;durP1;ratioP1;P1;durP2;ratioP2;P2;SDS_P1;SDS_P2;PMS_P1;PMS_P2;Temp;Humidity;BMP_temperature;BMP_pressure;BME280_temperature;BME280_humidity;BME280_pressure;Samples;Min_cycle;Max_cycle;Signal;HPM_P1;HPM_P2
2022/03/16 00:00:10;;;;;;;42.47;34.10;;;3.50;99.90;;;;;;4968391;28;20808;-71
2022/03/16 00:02:38;;;;;;;37.70;34.03;;;3.40;99.90;;;;;;5002251;28;20855;-70
2022/03/16 00:05:06;;;;;;;38.10;33.97;;;3.30;99.90;;;;;;4991962;28;20544;-70
2022/03/16 00:07:32;;;;;;;36.93;32.57;;;3.30;99.90;;;;;;4997002;28;20543;-69
2022/03/16 00:09:59;;;;;;;38.20;32.70;;;3.30;99.90;;;;;;4998994;28;20481;-71
2022/03/16 00:12:26;;;;;;;38.43;33.20;;;3.30;99.90;;;;;;5000622;28;20461;-73
2022/03/16 00:14:53;;;;;;;46.70;35.60;;;3.20;99.90;;;;;;4997372;28;20562;-72
2022/03/16 00:17:19;;;;;;;38.63;32.90;;;3.20;99.90;;;;;;5000713;28;20466;-69
2022/03/16 00:19:48;;;;;;;37.20;33.23;;;3.20;99.90;;;;;;4997487;28;20748;-72
2022/03/16 00:22:15;;;;;;;45.60;34.10;;;3.10;99.90;;;;;;4999941;28;20489;-74
2022/03/16 00:24:42;;;;;;;47.47;33.53;;;3.10;99.90;;;;;;5003015;28;20696;-72
2022/03/16 00:27:09;;;;;;;40.57;34.33;;;3.10;99.90;;;;;;5000980;28;20905;-71
2022/03/16 00:29:36;;;;;;;37.10;33.57;;;3.10;99.90;;;;;;4992532;28;20463;-71
2022/03/16 00:32:04;;;;;;;42.63;32.87;;;3.10;99.90;;;;;;4997643;28;20844;-71
2022/03/16 00:34:31;;;;;;;39.63;35.47;;;3.00;99.90;;;;;;4997862;28;20560;-71
2022/03/16 00:36:59;;;;;;;40.13;35.90;;;3.00;99.90;;;;;;5009405;28;20546;-72
2022/03/16 00:39:27;;;;;;;38.73;34.83;;;3.00;99.90;;;;;;5038065;28;20464;-72
2022/03/16 00:41:54;;;;;;;42.60;37.07;;;3.10;99.90;;;;;;5041307;28;20495;-70
2022/03/16 00:44:21;;;;;;;41.90;37.37;;;3.10;99.90;;;;;;5043164;28;20467;-73
2022/03/16 00:46:48;;;;;;;36.83;33.10;;;3.10;99.90;;;;;;5040683;28;20527;-72
2022/03/16 00:49:15;;;;;;;41.93;37.20;;;3.10;99.90;;;;;;5036201;28;20467;-73
2022/03/16 00:51:43;;;;;;;40.27;35.93;;;3.10;99.90;;;;;;5040801;28;20961;-70
2022/03/16 00:54:11;;;;;;;40.07;35.80;;;3.20;99.90;;;;;;5037974;28;20468;-73
2022/03/16 00:56:39;;;;;;;38.80;34.87;;;3.20;99.90;;;;;;5041445;28;20498;-71
2022/03/16 01:01:46;;;;;;;39.33;35.43;;;3.20;99.90;;;;;;5036780;28;20874;-71
2022/03/16 01:04:13;;;;;;;39.77;35.23;;;3.10;99.90;;;;;;5034752;28;20471;-73
2022/03/16 01:06:40;;;;;;;40.57;36.47;;;3.10;99.90;;;;;;5038907;28;20995;-71
2022/03/16 01:09:07;;;;;;;40.80;36.10;;;3.10;99.90;;;;;;5037892;28;20468;-70
2022/03/16 01:11:35;;;;;;;43.73;36.40;;;3.10;99.90;;;;;;5035863;28;20929;-73
2022/03/16 01:14:02;;;;;;;42.23;36.50;;;3.10;99.90;;;;;;5031340;28;20464;-71
2022/03/16 01:16:28;;;;;;;40.50;36.10;;;3.00;99.90;;;;;;5039160;28;20460;-72
2022/03/16 01:18:55;;;;;;;45.83;37.73;;;3.00;99.90;;;;;;5037608;28;20475;-71
2022/03/16 01:21:22;;;;;;;40.83;36.37;;;3.10;99.90;;;;;;5040892;28;20464;-72
2022/03/16 01:23:49;;;;;;;44.10;37.73;;;3.20;99.90;;;;;;5043965;28;20491;-72
2022/03/16 01:26:16;;;;;;;40.87;36.07;;;3.40;99.90;;;;;;5038741;28;20456;-70
2022/03/16 01:28:44;;;;;;;40.57;36.17;;;3.40;99.90;;;;;;5037522;28;20476;-71
2022/03/16 01:31:11;;;;;;;49.63;37.30;;;3.40;99.90;;;;;;5039185;28;21005;-71
2022/03/16 01:33:38;;;;;;;40.80;36.80;;;3.40;99.90;;;;;;5033001;28;20529;-71
2022/03/16 01:36:05;;;;;;;41.40;36.70;;;3.40;99.90;;;;;;5042646;28;20468;-72
2022/03/16 01:38:32;;;;;;;41.50;37.20;;;3.50;99.90;;;;;;5035894;28;21022;-72
2022/03/16 01:40:59;;;;;;;39.93;35.60;;;3.50;99.90;;;;;;5038231;28;20868;-69
2022/03/16 01:43:27;;;;;;;42.23;37.30;;;3.50;99.90;;;;;;5036663;28;20502;-70
2022/03/16 01:45:55;;;;;;;42.07;37.70;;;3.60;99.90;;;;;;5040998;28;20472;-71
2022/03/16 01:48:22;;;;;;;40.53;36.50;;;3.60;99.90;;;;;;5038378;28;20460;-72
2022/03/16 01:50:49;;;;;;;41.33;37.00;;;3.70;99.90;;;;;;5038832;28;20460;-73
2022/03/16 01:53:18;;;;;;;41.27;36.97;;;3.60;99.90;;;;;;5037327;28;21152;-71
2022/03/16 01:55:45;;;;;;;41.37;37.27;;;3.50;99.90;;;;;;5038827;28;20468;-73
2022/03/16 01:58:13;;;;;;;45.30;39.50;;;3.40;99.90;;;;;;5039794;28;20993;-70
2022/03/16 02:00:41;;;;;;;42.97;38.40;;;3.40;99.90;;;;;;5045465;28;20474;-72
2022/03/16 02:03:09;;;;;;;44.83;37.60;;;3.40;99.90;;;;;;5045503;28;20581;-71
2022/03/16 02:05:36;;;;;;;48.40;37.90;;;3.50;99.90;;;;;;5040561;28;20463;-70
2022/03/16 02:08:05;;;;;;;43.43;37.23;;;3.60;99.90;;;;;;5032292;28;20541;-71
2022/03/16 02:10:32;;;;;;;42.07;37.73;;;3.50;99.90;;;;;;5032183;28;20501;-70
2022/03/16 02:12:59;;;;;;;43.10;38.20;;;3.50;99.90;;;;;;5038454;28;20472;-72
2022/03/16 02:15:25;;;;;;;42.60;38.13;;;3.50;99.90;;;;;;5037865;28;20455;-72
2022/03/16 02:17:55;;;;;;;42.83;38.40;;;3.40;99.90;;;;;;5034232;28;20464;-71
2022/03/16 02:20:23;;;;;;;43.47;38.77;;;3.40;99.90;;;;;;5040561;28;20851;-71
2022/03/16 02:22:56;;;;;;;41.90;37.50;;;3.40;99.90;;;;;;5037374;28;20488;-73
2022/03/16 02:25:23;;;;;;;42.27;37.97;;;3.30;99.90;;;;;;5036757;28;20473;-72
2022/03/16 02:27:52;;;;;;;41.23;37.03;;;3.30;99.90;;;;;;5039636;28;20463;-71
2022/03/16 02:30:19;;;;;;;43.73;39.03;;;3.40;99.90;;;;;;5037129;28;20995;-71
2022/03/16 02:32:46;;;;;;;41.60;37.50;;;3.40;99.90;;;;;;5036127;28;20946;-71
2022/03/16 02:35:12;;;;;;;42.33;38.03;;;3.30;99.90;;;;;;5036229;28;20456;-71
2022/03/16 02:37:39;;;;;;;42.23;38.03;;;3.30;99.90;;;;;;5034832;28;20576;-71
2022/03/16 02:40:10;;;;;;;41.83;37.67;;;3.30;99.90;;;;;;5038208;28;20472;-70
2022/03/16 02:42:38;;;;;;;42.60;38.20;;;3.20;99.90;;;;;;5039211;28;20477;-71
2022/03/16 02:45:07;;;;;;;43.13;38.40;;;3.30;99.90;;;;;;5041117;28;20991;-69
2022/03/16 02:47:34;;;;;;;44.37;37.80;;;3.30;99.90;;;;;;5037627;28;20463;-70
2022/03/16 02:50:01;;;;;;;42.73;38.40;;;3.20;99.90;;;;;;5032438;28;21021;-71
2022/03/16 02:52:28;;;;;;;44.63;40.10;;;3.20;99.90;;;;;;5032516;28;20468;-70
2022/03/16 02:54:56;;;;;;;44.17;37.83;;;3.20;99.90;;;;;;5039408;28;21016;-71
2022/03/16 02:57:24;;;;;;;42.33;37.97;;;3.10;99.90;;;;;;5039857;28;20551;-71
2022/03/16 02:59:51;;;;;;;45.17;38.03;;;3.10;99.90;;;;;;5036213;28;20457;-71
2022/03/16 03:02:18;;;;;;;48.03;37.90;;;3.10;99.90;;;;;;5034574;28;20497;-69
2022/03/16 03:04:45;;;;;;;43.23;38.67;;;3.00;99.90;;;;;;5039435;28;20471;-70
2022/03/16 03:07:11;;;;;;;44.10;38.40;;;3.10;99.90;;;;;;5038079;28;20465;-70
2022/03/16 03:09:38;;;;;;;47.60;40.50;;;3.10;99.90;;;;;;5038669;28;20465;-71
2022/03/16 03:12:06;;;;;;;41.87;37.57;;;3.10;99.90;;;;;;5034824;28;20477;-69
2022/03/16 03:14:35;;;;;;;45.87;37.33;;;3.00;99.90;;;;;;5038600;28;20452;-71
2022/03/16 03:17:02;;;;;;;44.00;38.67;;;3.00;99.90;;;;;;5036282;28;20464;-69
2022/03/16 03:19:29;;;;;;;43.50;37.67;;;2.90;99.90;;;;;;5037971;28;20835;-70
2022/03/16 03:21:56;;;;;;;48.60;38.97;;;2.90;99.90;;;;;;5035522;28;20547;-70
2022/03/16 03:24:23;;;;;;;52.93;39.50;;;2.90;99.90;;;;;;5036296;28;20508;-71
2022/03/16 03:26:50;;;;;;;44.00;39.20;;;2.90;99.90;;;;;;5040175;28;20606;-71
2022/03/16 03:29:18;;;;;;;42.53;38.20;;;2.90;99.90;;;;;;5031873;28;21301;-69
2022/03/16 03:31:46;;;;;;;45.13;36.73;;;3.00;99.90;;;;;;5033633;28;20492;-69
2022/03/16 03:34:13;;;;;;;40.90;36.00;;;3.00;99.90;;;;;;5033897;28;20522;-71
2022/03/16 03:36:40;;;;;;;38.80;34.77;;;3.10;99.90;;;;;;5038786;28;20468;-70
2022/03/16 03:39:06;;;;;;;39.93;35.60;;;3.20;99.90;;;;;;5031644;28;20471;-70
2022/03/16 03:41:33;;;;;;;43.50;34.47;;;3.30;99.90;;;;;;5039140;28;20475;-71
2022/03/16 03:44:00;;;;;;;42.17;36.23;;;3.30;99.90;;;;;;5034571;28;20496;-70
2022/03/16 03:46:27;;;;;;;39.60;35.30;;;3.20;99.90;;;;;;5039207;28;20822;-70
2022/03/16 03:48:56;;;;;;;41.30;36.97;;;3.20;99.90;;;;;;5039082;28;20952;-71
2022/03/16 03:51:23;;;;;;;39.43;35.37;;;3.20;99.90;;;;;;5039899;28;20580;-70
2022/03/16 03:53:50;;;;;;;45.43;37.63;;;3.20;99.90;;;;;;5038820;28;20459;-70
2022/03/16 03:56:17;;;;;;;43.57;37.40;;;3.10;99.90;;;;;;5031702;28;20465;-71
2022/03/16 03:58:45;;;;;;;42.37;37.80;;;3.10;99.90;;;;;;5031099;28;20464;-70
2022/03/16 04:01:11;;;;;;;41.13;36.30;;;3.10;99.90;;;;;;5030427;28;20482;-71
2022/03/16 04:03:38;;;;;;;43.10;37.07;;;3.20;99.90;;;;;;5039744;28;20485;-70
2022/03/16 04:06:07;;;;;;;42.87;36.33;;;3.20;99.90;;;;;;5038819;28;20841;-71
2022/03/16 04:08:34;;;;;;;46.60;37.80;;;3.20;99.90;;;;;;5031667;28;20500;-71
2022/03/16 04:11:01;;;;;;;40.93;36.63;;;3.10;99.90;;;;;;5037851;28;20826;-72
2022/03/16 04:13:28;;;;;;;43.50;38.57;;;3.20;99.90;;;;;;5033493;28;20477;-71
2022/03/16 04:15:55;;;;;;;43.30;37.43;;;3.20;99.90;;;;;;5035963;28;20483;-70
2022/03/16 04:18:23;;;;;;;42.67;38.10;;;3.10;99.90;;;;;;5037546;28;20851;-72
2022/03/16 04:20:49;;;;;;;47.60;36.87;;;3.20;99.90;;;;;;5034365;28;20464;-72
2022/03/16 04:23:17;;;;;;;46.70;36.70;;;3.20;99.90;;;;;;5036562;28;20483;-69
2022/03/16 04:25:44;;;;;;;39.90;35.63;;;3.10;99.90;;;;;;5029570;28;20465;-71
2022/03/16 04:30:52;;;;;;;44.13;39.20;;;3.20;99.90;;;;;;5037795;28;20840;-70
2022/03/16 04:33:19;;;;;;;43.03;38.40;;;3.20;99.90;;;;;;5031427;28;20959;-69
2022/03/16 04:35:45;;;;;;;43.87;37.73;;;3.20;99.90;;;;;;5036947;28;21090;-71
2022/03/16 04:38:12;;;;;;;44.77;38.60;;;3.20;99.90;;;;;;5038428;28;20480;-70
2022/03/16 04:40:40;;;;;;;42.60;38.10;;;3.10;99.90;;;;;;5034250;28;20463;-69
2022/03/16 04:43:07;;;;;;;42.20;37.80;;;3.10;99.90;;;;;;5034306;28;20487;-70
2022/03/16 04:45:37;;;;;;;42.73;38.13;;;3.10;99.90;;;;;;5036880;28;20471;-71
2022/03/16 04:48:07;;;;;;;43.40;37.47;;;3.20;99.90;;;;;;5038627;28;20975;-70
2022/03/16 04:50:34;;;;;;;44.60;37.67;;;3.20;99.90;;;;;;5036383;28;20461;-71
2022/03/16 04:53:00;;;;;;;49.77;37.63;;;3.20;99.90;;;;;;5043186;28;20483;-71
2022/03/16 04:55:28;;;;;;;42.13;36.13;;;3.20;99.90;;;;;;5038213;28;20541;-71
2022/03/16 04:57:56;;;;;;;44.87;38.53;;;3.10;99.90;;;;;;5038068;28;20472;-70
2022/03/16 05:00:24;;;;;;;46.37;37.73;;;3.20;99.90;;;;;;5030022;28;20467;-69
2022/03/16 05:02:51;;;;;;;49.53;38.20;;;3.30;99.90;;;;;;5018986;28;21294;-68
2022/03/16 05:05:18;;;;;;;40.23;36.13;;;3.20;99.90;;;;;;5009552;28;20582;-69
2022/03/16 05:07:45;;;;;;;53.63;38.23;;;3.10;99.90;;;;;;5023480;28;20477;-71
2022/03/16 05:10:12;;;;;;;41.87;35.80;;;3.20;99.90;;;;;;5035699;28;20811;-70
2022/03/16 05:12:39;;;;;;;45.70;35.53;;;3.30;99.90;;;;;;5032398;28;20475;-70
2022/03/16 05:15:10;;;;;;;45.50;36.27;;;3.30;99.90;;;;;;5029301;28;20464;-70
2022/03/16 05:17:38;;;;;;;43.40;36.23;;;3.40;99.90;;;;;;5008221;28;20507;-72
2022/03/16 05:20:06;;;;;;;47.20;37.07;;;3.30;99.90;;;;;;5008567;28;20460;-72
2022/03/16 05:22:40;;;;;;;52.70;39.43;;;3.30;99.90;;;;;;5008260;28;20474;-71
2022/03/16 05:25:08;;;;;;;45.77;37.13;;;3.40;99.90;;;;;;5012642;28;20488;-70
2022/03/16 05:27:35;;;;;;;50.10;38.27;;;3.40;99.90;;;;;;5036162;28;20460;-69
2022/03/16 05:30:02;;;;;;;51.93;38.07;;;3.30;99.90;;;;;;5023567;28;20456;-71
2022/03/16 05:32:31;;;;;;;48.70;37.50;;;3.30;99.90;;;;;;5008194;28;20469;-70
2022/03/16 05:34:58;;;;;;;50.77;38.10;;;3.30;99.90;;;;;;5009296;28;20476;-71
2022/03/16 05:37:25;;;;;;;44.83;38.40;;;3.30;99.90;;;;;;5009873;28;20496;-71
2022/03/16 05:39:53;;;;;;;61.07;40.70;;;3.30;99.90;;;;;;5007911;28;20915;-69
2022/03/16 05:42:20;;;;;;;51.93;38.33;;;3.40;99.90;;;;;;5007464;28;20465;-70
2022/03/16 05:44:47;;;;;;;55.03;38.47;;;3.40;99.90;;;;;;5008733;28;20507;-71
2022/03/16 05:47:14;;;;;;;57.63;37.13;;;3.30;99.90;;;;;;5008842;28;20492;-70
2022/03/16 05:49:42;;;;;;;55.03;39.10;;;3.40;99.90;;;;;;5008774;28;20480;-71
2022/03/16 05:52:09;;;;;;;63.43;40.40;;;3.40;99.90;;;;;;5008332;28;20847;-70
2022/03/16 05:54:36;;;;;;;63.70;40.10;;;3.30;99.90;;;;;;5008859;28;20584;-71
2022/03/16 05:57:03;;;;;;;61.40;39.50;;;3.30;99.90;;;;;;5007877;28;20460;-69
2022/03/16 05:59:30;;;;;;;51.30;38.20;;;3.30;99.90;;;;;;5009332;28;20511;-70
2022/03/16 06:01:57;;;;;;;56.47;37.63;;;3.40;99.90;;;;;;5007031;28;20469;-70
2022/03/16 06:04:24;;;;;;;64.43;37.67;;;3.40;99.90;;;;;;5008017;28;22421;-70
2022/03/16 06:06:52;;;;;;;57.93;37.30;;;3.50;99.90;;;;;;5005472;28;21109;-71
2022/03/16 06:09:19;;;;;;;58.33;39.63;;;3.50;99.90;;;;;;5006788;28;20475;-70
2022/03/16 06:11:46;;;;;;;54.03;37.83;;;3.50;99.90;;;;;;5006940;28;20473;-70
2022/03/16 06:14:12;;;;;;;58.30;38.80;;;3.50;99.90;;;;;;5006114;28;20944;-69
2022/03/16 06:16:39;;;;;;;59.87;36.80;;;3.50;99.90;;;;;;5008084;28;21141;-69
2022/03/16 06:19:06;;;;;;;60.83;36.97;;;3.60;99.90;;;;;;5005638;28;20987;-70
2022/03/16 06:21:33;;;;;;;58.43;38.43;;;3.60;99.90;;;;;;5007631;28;20457;-69
2022/03/16 06:24:01;;;;;;;62.30;38.80;;;3.70;99.90;;;;;;5019832;28;20484;-70
2022/03/16 06:26:27;;;;;;;54.03;36.43;;;3.80;99.90;;;;;;5034460;28;20465;-69
2022/03/16 06:28:54;;;;;;;59.73;40.00;;;3.90;99.90;;;;;;5007544;28;21070;-71
2022/03/16 06:31:21;;;;;;;67.07;39.80;;;4.00;99.90;;;;;;5006142;28;20806;-71
2022/03/16 06:33:48;;;;;;;59.13;38.37;;;4.10;99.90;;;;;;5008017;28;21970;-68
2022/03/16 06:36:15;;;;;;;59.20;37.90;;;4.20;99.90;;;;;;5008186;28;20744;-69
2022/03/16 06:38:42;;;;;;;57.03;41.37;;;4.30;99.90;;;;;;5007925;28;20499;-71
2022/03/16 06:41:10;;;;;;;54.57;38.27;;;4.40;99.90;;;;;;5007471;28;20464;-70
2022/03/16 06:43:37;;;;;;;61.63;39.00;;;4.50;99.90;;;;;;5008413;28;20588;-70
2022/03/16 06:46:04;;;;;;;64.77;37.17;;;4.70;99.90;;;;;;5008683;28;20452;-71
2022/03/16 06:48:30;;;;;;;56.87;36.80;;;4.80;99.90;;;;;;5006652;28;20485;-71
2022/03/16 06:50:58;;;;;;;52.57;37.47;;;4.90;99.90;;;;;;5004049;28;20457;-69
2022/03/16 06:53:24;;;;;;;53.40;38.00;;;5.00;99.90;;;;;;5004847;28;20735;-71
2022/03/16 06:55:51;;;;;;;60.60;38.80;;;5.10;99.90;;;;;;5005819;28;20469;-72
2022/03/16 06:58:19;;;;;;;69.37;39.67;;;5.10;99.90;;;;;;5005200;28;20471;-72
2022/03/16 07:00:47;;;;;;;59.10;38.77;;;5.20;99.90;;;;;;4998761;28;20456;-70
2022/03/16 07:03:14;;;;;;;62.17;36.97;;;5.30;99.90;;;;;;5036624;28;21164;-71
2022/03/16 07:05:43;;;;;;;53.00;39.43;;;5.30;99.90;;;;;;5032334;28;20597;-71
2022/03/16 07:08:11;;;;;;;55.07;39.53;;;5.40;99.90;;;;;;5022187;28;20461;-71
2022/03/16 07:10:40;;;;;;;56.60;38.63;;;5.50;99.90;;;;;;5004953;28;20473;-69
2022/03/16 07:13:09;;;;;;;47.97;38.47;;;5.50;99.90;;;;;;5004937;28;20501;-71
2022/03/16 07:15:39;;;;;;;51.93;38.90;;;5.50;99.90;;;;;;5004264;28;20867;-71
2022/03/16 07:18:06;;;;;;;56.30;40.20;;;5.60;99.90;;;;;;5005186;28;21104;-70
2022/03/16 07:20:34;;;;;;;57.83;40.33;;;5.60;99.90;;;;;;5005063;28;20511;-70
2022/03/16 07:23:02;;;;;;;62.37;43.30;;;5.60;99.90;;;;;;5005389;28;20456;-71
2022/03/16 07:25:30;;;;;;;58.40;41.90;;;5.70;99.90;;;;;;5004798;28;20489;-71
2022/03/16 07:27:56;;;;;;;67.30;45.40;;;5.70;99.90;;;;;;5005413;28;21307;-70
2022/03/16 07:30:23;;;;;;;60.67;43.90;;;5.80;99.90;;;;;;5004949;28;20606;-71
2022/03/16 07:32:52;;;;;;;62.00;44.50;;;5.70;99.90;;;;;;5005241;28;20462;-70
2022/03/16 07:35:24;;;;;;;72.07;45.27;;;5.80;99.90;;;;;;5003990;28;20467;-69
2022/03/16 07:37:51;;;;;;;68.40;44.93;;;5.90;99.90;;;;;;5004534;28;20546;-71
2022/03/16 07:40:18;;;;;;;73.13;47.40;;;6.00;99.90;;;;;;5005084;28;20472;-70
2022/03/16 07:42:47;;;;;;;65.70;46.27;;;6.20;99.90;;;;;;5005285;28;20861;-72
2022/03/16 07:45:15;;;;;;;73.00;47.90;;;6.30;99.90;;;;;;5006522;28;20507;-69
2022/03/16 07:47:43;;;;;;;70.80;47.03;;;6.40;99.90;;;;;;5004993;28;21117;-70
2022/03/16 07:50:11;;;;;;;86.53;49.20;;;6.30;99.90;;;;;;5003679;28;20465;-70
2022/03/16 07:52:38;;;;;;;71.37;48.70;;;6.40;99.90;;;;;;5005352;28;20473;-70
2022/03/16 07:55:07;;;;;;;80.47;48.33;;;6.50;99.90;;;;;;5003314;28;20468;-70
2022/03/16 07:57:34;;;;;;;74.27;48.13;;;6.50;99.90;;;;;;5005768;28;20469;-69
2022/03/16 08:00:01;;;;;;;67.10;46.50;;;6.70;99.90;;;;;;5004322;28;20478;-70
2022/03/16 08:02:28;;;;;;;66.10;47.77;;;6.60;99.90;;;;;;5025590;28;21253;-70
2022/03/16 08:04:57;;;;;;;63.70;44.40;;;6.80;99.90;;;;;;5030879;28;20500;-69
2022/03/16 08:07:26;;;;;;;65.40;46.33;;;6.90;99.90;;;;;;5019564;28;20463;-70
2022/03/16 08:09:54;;;;;;;63.60;42.90;;;7.00;99.90;;;;;;5004232;28;20476;-70
2022/03/16 08:12:20;;;;;;;63.57;44.80;;;7.20;99.90;;;;;;5002888;28;20476;-70
2022/03/16 08:14:47;;;;;;;68.90;43.33;;;7.30;99.90;;;;;;5003302;28;20463;-70
2022/03/16 08:17:14;;;;;;;67.33;48.37;;;7.50;99.90;;;;;;5005940;28;20471;-70
2022/03/16 08:19:41;;;;;;;69.20;44.30;;;7.60;99.90;;;;;;5019232;28;20468;-70
2022/03/16 08:22:08;;;;;;;59.70;45.00;;;7.80;99.90;;;;;;5005118;28;20471;-70
2022/03/16 08:24:36;;;;;;;68.67;45.43;;;7.90;99.90;;;;;;5045273;28;20487;-70
2022/03/16 08:27:04;;;;;;;60.10;45.10;;;8.10;99.90;;;;;;5010301;28;20478;-72
2022/03/16 08:29:31;;;;;;;66.10;44.47;;;8.10;99.90;;;;;;5006531;28;20470;-70
2022/03/16 08:31:58;;;;;;;58.97;42.90;;;8.10;99.90;;;;;;5008188;28;20515;-70
2022/03/16 08:34:25;;;;;;;69.23;44.60;;;8.10;99.90;;;;;;5007174;28;20470;-71
2022/03/16 08:36:53;;;;;;;62.23;44.83;;;8.10;99.90;;;;;;5008093;28;20496;-71
2022/03/16 08:39:19;;;;;;;75.37;43.97;;;8.10;99.90;;;;;;5008799;28;20547;-70
2022/03/16 08:41:47;;;;;;;56.07;41.90;;;8.20;99.90;;;;;;5009185;28;20472;-71
2022/03/16 08:44:15;;;;;;;68.47;45.33;;;8.30;99.90;;;;;;5008872;28;20465;-71
2022/03/16 08:46:42;;;;;;;74.47;42.10;;;8.40;99.90;;;;;;5009209;28;20501;-71
2022/03/16 08:49:09;;;;;;;56.57;42.33;;;8.40;99.90;;;;;;5007670;28;20552;-71
2022/03/16 08:51:36;;;;;;;59.97;41.67;;;8.40;99.90;;;;;;5008658;28;20468;-70
2022/03/16 08:54:04;;;;;;;57.13;41.17;;;8.40;99.90;;;;;;5008015;28;20500;-71
2022/03/16 08:56:31;;;;;;;63.13;42.07;;;8.50;99.90;;;;;;5009162;28;20476;-70
2022/03/16 08:59:00;;;;;;;52.00;39.10;;;8.60;99.90;;;;;;5007168;28;20902;-71
2022/03/16 09:01:27;;;;;;;48.43;38.10;;;8.80;99.90;;;;;;5008658;28;20591;-71
2022/03/16 09:03:54;;;;;;;51.20;37.50;;;8.90;99.90;;;;;;5008130;28;20452;-70
2022/03/16 09:06:21;;;;;;;49.70;38.97;;;8.80;99.90;;;;;;5008033;28;20492;-71
2022/03/16 09:08:48;;;;;;;46.23;37.50;;;9.00;99.90;;;;;;5006839;28;20795;-71
2022/03/16 09:11:15;;;;;;;46.83;35.00;;;9.10;99.90;;;;;;5007182;28;20521;-70
2022/03/16 09:13:43;;;;;;;44.13;37.43;;;9.20;99.90;;;;;;5008609;28;21376;-71
2022/03/16 09:16:28;;;;;;;41.87;34.70;;;9.40;99.90;;;;;;5008658;28;20537;-71
2022/03/16 09:18:55;;;;;;;41.37;35.40;;;9.40;99.90;;;;;;5028330;28;20467;-70
2022/03/16 09:21:24;;;;;;;36.93;33.03;;;9.60;99.90;;;;;;5040055;28;20500;-71
2022/03/16 09:23:52;;;;;;;36.70;33.00;;;9.60;99.90;;;;;;5035776;28;20464;-71
2022/03/16 09:26:21;;;;;;;37.77;33.77;;;9.60;99.90;;;;;;5027890;28;20886;-73
2022/03/16 09:28:47;;;;;;;36.53;32.73;;;9.80;99.90;;;;;;5006413;28;20465;-70
2022/03/16 09:31:15;;;;;;;35.17;31.43;;;9.90;99.90;;;;;;5006259;28;21310;-71
2022/03/16 09:33:43;;;;;;;34.80;31.40;;;10.10;99.90;;;;;;5005517;28;20527;-71
2022/03/16 09:36:10;;;;;;;34.50;30.90;;;10.30;99.90;;;;;;5007620;28;21074;-71
2022/03/16 09:38:37;;;;;;;37.80;31.90;;;10.10;99.90;;;;;;5006444;28;20930;-70
2022/03/16 09:41:04;;;;;;;36.53;33.00;;;10.20;99.90;;;;;;5007325;28;20463;-72
2022/03/16 09:43:33;;;;;;;33.93;29.70;;;10.40;99.90;;;;;;5006954;28;20469;-73
2022/03/16 09:46:09;;;;;;;35.60;30.40;;;10.30;99.90;;;;;;5008687;28;20489;-72
2022/03/16 09:48:36;;;;;;;33.93;30.60;;;10.40;99.90;;;;;;5007605;28;20474;-73
2022/03/16 09:51:05;;;;;;;32.23;29.07;;;10.70;99.90;;;;;;5007009;28;20792;-72
2022/03/16 09:53:33;;;;;;;31.30;28.13;;;11.00;99.90;;;;;;5006569;28;20463;-72
2022/03/16 09:56:00;;;;;;;35.53;28.27;;;11.40;99.90;;;;;;5007132;28;20476;-71
2022/03/16 09:58:28;;;;;;;29.07;26.40;;;11.90;99.90;;;;;;5006756;28;20610;-72
2022/03/16 10:00:55;;;;;;;40.93;29.20;;;12.30;99.90;;;;;;5006219;28;20490;-72
2022/03/16 10:03:24;;;;;;;28.90;26.40;;;12.50;99.90;;;;;;5005525;28;20469;-72
2022/03/16 10:05:51;;;;;;;27.97;25.23;;;12.70;99.90;;;;;;5007845;28;20484;-72
2022/03/16 10:08:29;;;;;;;28.97;26.13;;;12.80;99.90;;;;;;5006139;28;20467;-72
2022/03/16 10:13:53;;;;;;;30.20;27.20;;;13.20;99.90;;;;;;5006469;28;21122;-74
2022/03/16 10:16:21;;;;;;;29.37;26.37;;;13.20;99.90;;;;;;5007296;28;20974;-71
2022/03/16 10:18:55;;;;;;;29.03;26.40;;;13.30;99.90;;;;;;5006225;28;20963;-73
2022/03/16 10:21:22;;;;;;;28.20;25.20;;;13.40;99.90;;;;;;5006648;28;20562;-73
2022/03/16 10:23:51;;;;;;;25.83;23.73;;;13.50;99.90;;;;;;5005657;28;20589;-71
2022/03/16 10:26:21;;;;;;;30.60;25.93;;;13.90;99.90;;;;;;5007086;28;21351;-72
2022/03/16 10:28:48;;;;;;;27.90;25.13;;;14.30;99.90;;;;;;5006915;28;21468;-71
2022/03/16 10:31:18;;;;;;;27.23;24.83;;;14.50;99.90;;;;;;5006077;28;20545;-72
2022/03/16 10:33:47;;;;;;;27.47;24.67;;;14.50;99.90;;;;;;5005841;28;20499;-71
2022/03/16 10:36:15;;;;;;;28.63;26.10;;;14.30;99.90;;;;;;5006125;28;20591;-71
2022/03/16 10:38:45;;;;;;;29.37;25.17;;;14.70;99.90;;;;;;4969761;28;21146;-71
2022/03/16 10:46:46;;;;;;;26.20;24.00;;;14.40;99.90;;;;;;4966695;28;20545;-72
2022/03/16 10:49:16;;;;;;;33.70;24.33;;;14.20;99.90;;;;;;4965864;28;21089;-71
2022/03/16 10:51:44;;;;;;;27.47;23.90;;;14.70;99.90;;;;;;4966854;28;20561;-71
2022/03/16 10:54:14;;;;;;;28.03;25.47;;;15.10;99.90;;;;;;4969267;28;20471;-73
2022/03/16 10:56:44;;;;;;;25.70;23.20;;;15.30;99.90;;;;;;4998837;28;20469;-71
2022/03/16 10:59:11;;;;;;;25.87;22.70;;;15.80;99.90;;;;;;4993978;28;20560;-71
2022/03/16 11:01:39;;;;;;;25.70;23.43;;;15.90;99.90;;;;;;4970554;28;20462;-71
2022/03/16 11:04:08;;;;;;;30.90;23.57;;;16.40;99.90;;;;;;4966264;28;20469;-73
2022/03/16 11:06:36;;;;;;;29.50;22.77;;;16.50;99.90;;;;;;4965580;28;20486;-71
2022/03/16 11:09:03;;;;;;;40.53;23.97;;;16.50;99.90;;;;;;4966383;28;20469;-73
2022/03/16 11:14:20;;;;;;;27.57;24.50;;;16.30;99.90;;;;;;4966605;28;20502;-71
2022/03/16 11:16:47;;;;;;;28.30;24.60;;;16.00;99.90;;;;;;4965857;28;21105;-71
2022/03/16 11:19:18;;;;;;;25.27;23.23;;;15.90;99.90;;;;;;4966330;28;20454;-72
2022/03/16 11:21:50;;;;;;;25.50;22.73;;;15.90;99.90;;;;;;4966712;28;20466;-71
2022/03/16 11:24:26;;;;;;;28.60;23.23;;;16.30;99.90;;;;;;4965651;28;20451;-71
2022/03/16 11:27:26;;;;;;;25.40;23.33;;;16.40;99.90;;;;;;4965115;28;20502;-72
2022/03/16 11:30:13;;;;;;;25.50;23.30;;;16.50;99.90;;;;;;4965589;28;20457;-70
2022/03/16 11:32:41;;;;;;;25.60;23.60;;;16.30;99.90;;;;;;4964926;28;20461;-70
2022/03/16 11:35:10;;;;;;;25.17;23.27;;;16.90;99.90;;;;;;4973846;28;20478;-71
2022/03/16 11:37:40;;;;;;;23.97;22.17;;;16.20;99.90;;;;;;4984769;28;20713;-72
2022/03/16 11:40:11;;;;;;;25.17;23.10;;;16.10;99.90;;;;;;5032352;28;20872;-71
2022/03/16 11:42:40;;;;;;;25.10;22.77;;;16.40;99.90;;;;;;5028629;28;20471;-71
2022/03/16 11:45:37;;;;;;;25.43;23.17;;;16.20;99.90;;;;;;5007399;28;20828;-71
2022/03/16 11:48:40;;;;;;;34.60;23.60;;;16.10;99.90;;;;;;5005265;28;20465;-71
2022/03/16 11:51:16;;;;;;;25.93;23.30;;;16.70;99.90;;;;;;5004390;28;20465;-71
2022/03/16 11:54:05;;;;;;;26.33;23.30;;;17.40;99.90;;;;;;5003520;28;20852;-71
2022/03/16 11:56:47;;;;;;;25.10;22.50;;;17.70;99.90;;;;;;5004338;28;20469;-72
2022/03/16 11:59:29;;;;;;;23.50;21.80;;;17.80;99.90;;;;;;5005109;28;20883;-72
2022/03/16 12:02:10;;;;;;;29.20;24.00;;;17.50;99.90;;;;;;5005492;28;20480;-71
2022/03/16 12:04:40;;;;;;;25.17;22.80;;;17.30;99.90;;;;;;5005266;28;20456;-73
2022/03/16 12:07:10;;;;;;;30.47;22.03;;;17.70;99.90;;;;;;5005017;28;21138;-72
2022/03/16 12:09:40;;;;;;;24.23;22.13;;;18.10;99.90;;;;;;5004851;28;21027;-70
2022/03/16 12:14:58;;;;;;;25.70;23.00;;;18.00;99.90;;;;;;5003614;28;20495;-72
2022/03/16 12:17:27;;;;;;;24.13;21.83;;;18.50;99.90;;;;;;5005579;28;20847;-72
2022/03/16 12:20:11;;;;;;;26.03;22.27;;;18.40;99.90;;;;;;5003368;28;20491;-72
2022/03/16 12:22:41;;;;;;;35.60;24.00;;;17.70;99.90;;;;;;5004268;28;20469;-72
2022/03/16 12:25:28;;;;;;;25.33;23.23;;;17.40;99.90;;;;;;5002920;28;20472;-74
2022/03/16 12:30:41;;;;;;;25.17;22.60;;;17.40;99.90;;;;;;5003571;28;20546;-72
2022/03/16 12:33:11;;;;;;;24.60;22.00;;;17.40;99.90;;;;;;5004256;28;20522;-72
2022/03/16 12:35:38;;;;;;;23.03;21.33;;;17.50;99.90;;;;;;5004359;28;20464;-72
2022/03/16 12:38:09;;;;;;;24.73;22.23;;;17.40;99.90;;;;;;5003160;28;20907;-72
2022/03/16 12:42:30;;;;;;;24.63;22.80;;;17.70;99.90;;;;;;5003223;28;20720;-72
2022/03/16 12:43:26;;;;;;;24.50;21.87;;;17.80;99.90;;;;;;5004016;28;20503;-73
2022/03/16 12:45:59;;;;;;;26.57;22.40;;;18.00;99.90;;;;;;5003814;28;20488;-72
2022/03/16 12:48:33;;;;;;;25.63;23.13;;;17.90;99.90;;;;;;5003050;28;20801;-73
2022/03/16 12:51:00;;;;;;;24.00;22.30;;;17.40;99.90;;;;;;5003196;28;20989;-72
2022/03/16 12:53:44;;;;;;;24.03;22.00;;;17.10;99.90;;;;;;5003773;28;20460;-72
2022/03/16 12:56:12;;;;;;;23.30;20.90;;;16.80;99.90;;;;;;5003664;28;20463;-72
2022/03/16 12:58:41;;;;;;;22.67;20.83;;;16.40;99.90;;;;;;5003785;28;20467;-72
2022/03/16 13:01:16;;;;;;;24.67;22.77;;;16.40;99.90;;;;;;5002699;28;20551;-72